Time;durP1;ratioP1;P1;durP2;ratioP2;P2;SDS_P1;SDS_P2;PMS_P1;PMS_P2;Temp;Humidity;BMP_temperature;BMP_pressure;BME280_temperature;BME280_humidity;BME280_pressure;Samples;Min_cycle;Max_cycle;Signal;HPM_P1;HPM_P2
2022/05/24 00:00:22;;;;;;;544.38;489.17;;;;;;;21.34;39.05;99596.34;691224;28;21255;-65
2022/05/24 00:00:46;;;;;;;533.55;478.65;;;;;;;21.33;39.17;99604.84;687267;28;115121;-65
2022/05/24 00:01:07;;;;;;;535.00;480.10;;;;;;;21.31;39.05;99610.63;688727;28;92303;-65
2022/05/24 00:01:31;;;;;;;533.03;478.15;;;;;;;21.30;39.07;99603.50;688838;28;91263;-65
2022/05/24 00:01:54;;;;;;;536.85;481.85;;;;;;;21.31;38.87;99604.31;691388;28;22344;-66
2022/05/24 00:02:15;;;;;;;542.50;487.50;;;;;;;21.29;38.99;99599.09;688997;28;69435;-66
2022/05/24 00:02:36;;;;;;;536.10;481.20;;;;;;;21.31;38.84;99605.13;690559;28;20931;-65
2022/05/24 00:03:00;;;;;;;545.42;490.23;;;;;;;21.33;38.96;99599.34;687791;28;69362;-66
2022/05/24 00:03:22;;;;;;;539.97;484.98;;;;;;;21.33;39.02;99597.47;689760;28;46310;-64
2022/05/24 00:03:43;;;;;;;545.70;490.60;;;;;;;21.35;38.85;99606.22;689864;28;46302;-65
2022/05/24 00:04:05;;;;;;;547.38;492.13;;;;;;;21.37;38.88;99600.47;690307;28;23464;-65
2022/05/24 00:04:26;;;;;;;543.10;488.08;;;;;;;21.35;38.97;99597.19;690744;28;22333;-66
2022/05/24 00:04:48;;;;;;;536.73;481.80;;;;;;;21.38;38.83;99594.69;690420;28;46324;-66
2022/05/24 00:05:10;;;;;;;536.88;481.95;;;;;;;21.39;38.79;99598.25;689776;28;45319;-66
2022/05/24 00:05:33;;;;;;;537.70;482.73;;;;;;;21.38;38.64;99591.13;688961;28;69431;-65
2022/05/24 00:05:54;;;;;;;542.17;487.17;;;;;;;21.38;38.84;99597.44;689733;28;69385;-66
2022/05/24 00:06:17;;;;;;;548.92;493.63;;;;;;;21.38;38.96;99599.38;690635;28;22419;-67
2022/05/24 00:06:38;;;;;;;563.83;508.15;;;;;;;21.38;38.95;99599.38;689550;28;55101;-66
2022/05/24 00:07:00;;;;;;;566.28;510.38;;;;;;;21.36;38.85;99599.66;689800;28;23431;-66
2022/05/24 00:07:21;;;;;;;564.38;508.48;;;;;;;21.35;39.01;99594.44;691232;28;2017;-66
2022/05/24 00:07:43;;;;;;;563.85;508.15;;;;;;;21.34;38.94;99599.09;690649;28;23484;-65
2022/05/24 00:08:06;;;;;;;559.85;504.35;;;;;;;21.32;39.06;99597.72;689336;28;43407;-66
2022/05/24 00:08:34;;;;;;;558.90;503.30;;;;;;;21.30;39.18;99597.16;686744;28;138261;-66
2022/05/24 00:08:56;;;;;;;553.80;498.38;;;;;;;21.30;39.06;99595.25;689393;28;46394;-65
2022/05/24 00:09:17;;;;;;;541.22;486.15;;;;;;;21.30;39.04;99591.66;690203;28;45461;-66
2022/05/24 00:09:39;;;;;;;537.90;483.00;;;;;;;21.29;39.06;99592.78;691117;28;22393;-66
2022/05/24 00:10:01;;;;;;;544.25;489.13;;;;;;;21.27;39.03;99594.97;689204;28;69484;-67
2022/05/24 00:10:30;;;;;;;551.63;496.35;;;;;;;21.28;39.22;99594.69;690933;28;14750;-66
2022/05/24 00:10:53;;;;;;;546.92;491.63;;;;;;;21.29;39.15;99595.53;686862;28;136344;-66
2022/05/24 00:11:14;;;;;;;546.35;491.15;;;;;;;21.29;39.10;99590.84;689263;28;69384;-65
2022/05/24 00:11:36;;;;;;;544.80;489.65;;;;;;;21.28;39.01;99599.38;690942;28;22231;-66
2022/05/24 00:11:57;;;;;;;550.30;495.10;;;;;;;21.27;39.23;99590.31;690178;28;45374;-66
2022/05/24 00:12:18;;;;;;;544.83;489.70;;;;;;;21.27;39.04;99590.31;690851;28;17618;-66
2022/05/24 00:12:39;;;;;;;538.05;483.15;;;;;;;21.29;39.15;99592.78;691759;28;1454;-65
2022/05/24 00:13:01;;;;;;;535.03;480.02;;;;;;;21.26;38.95;99588.66;689895;28;22223;-66
2022/05/24 00:13:23;;;;;;;530.88;476.08;;;;;;;21.28;39.14;99585.66;689056;28;46427;-67
2022/05/24 00:13:45;;;;;;;530.97;476.23;;;;;;;21.27;39.11;99584.81;689716;28;46337;-66
2022/05/24 00:14:06;;;;;;;532.35;477.48;;;;;;;21.28;39.01;99585.66;690471;28;23446;-66
2022/05/24 00:15:23;;;;;;;525.55;470.92;;;;;;;21.31;39.22;99593.31;686791;28;136000;-68
2022/05/24 00:15:44;;;;;;;526.97;472.27;;;;;;;21.35;39.13;99588.94;686674;28;138549;-65
2022/05/24 00:16:05;;;;;;;522.75;468.15;;;;;;;21.34;39.02;99590.03;690775;28;21136;-65
2022/05/24 00:16:27;;;;;;;526.58;471.83;;;;;;;21.32;38.97;99587.56;691068;28;21502;-66
2022/05/24 00:16:49;;;;;;;529.20;474.40;;;;;;;21.26;39.29;99583.16;689823;28;44334;-66
2022/05/24 00:17:10;;;;;;;531.42;476.40;;;;;;;21.30;39.15;99589.78;688894;28;46350;-66
2022/05/24 00:17:31;;;;;;;530.38;475.52;;;;;;;21.28;39.16;99593.88;690826;28;22380;-65
2022/05/24 00:17:54;;;;;;;536.20;481.17;;;;;;;21.23;39.27;99587.28;690810;28;22477;-66
2022/05/24 00:18:19;;;;;;;534.33;479.33;;;;;;;21.24;39.29;99588.13;687456;28;92280;-66
2022/05/24 00:18:40;;;;;;;530.42;475.52;;;;;;;21.23;39.28;99579.03;688567;28;92249;-66
2022/05/24 00:19:01;;;;;;;525.45;470.65;;;;;;;21.23;39.02;99589.22;690186;28;24436;-66
2022/05/24 00:19:22;;;;;;;526.20;471.50;;;;;;;21.23;39.21;99589.22;690765;28;22221;-65
2022/05/24 00:19:43;;;;;;;525.65;470.95;;;;;;;21.24;38.94;99593.63;690781;28;21496;-65
2022/05/24 00:20:06;;;;;;;525.08;470.45;;;;;;;21.18;39.31;99581.81;690755;28;22379;-65
2022/05/24 00:20:30;;;;;;;531.05;476.10;;;;;;;21.23;39.22;99587.28;688207;28;90767;-65
2022/05/24 00:20:54;;;;;;;523.63;468.92;;;;;;;21.20;39.34;99584.28;687531;28;115788;-66
2022/05/24 00:21:16;;;;;;;523.72;469.02;;;;;;;21.22;39.42;99588.41;690284;28;37305;-67
2022/05/24 00:21:37;;;;;;;526.83;472.05;;;;;;;21.20;39.14;99579.59;689942;28;44193;-67
2022/05/24 00:21:58;;;;;;;526.08;471.27;;;;;;;21.21;39.20;99586.75;690589;28;22107;-65
2022/05/24 00:22:19;;;;;;;522.55;467.95;;;;;;;21.18;39.21;99586.47;689815;28;22397;-66
2022/05/24 00:22:40;;;;;;;525.53;470.73;;;;;;;21.23;39.48;99586.47;689827;28;21523;-66
2022/05/24 00:23:03;;;;;;;530.88;475.98;;;;;;;21.23;39.12;99584.53;689704;28;22484;-66
2022/05/24 00:23:26;;;;;;;525.05;470.40;;;;;;;21.23;39.25;99581.78;689244;28;69461;-66
2022/05/24 00:23:47;;;;;;;529.67;474.92;;;;;;;21.22;39.24;99574.69;689271;28;69502;-66
2022/05/24 00:24:09;;;;;;;528.22;473.52;;;;;;;21.23;39.22;99584.53;690232;28;22396;-65
2022/05/24 00:24:31;;;;;;;523.13;468.52;;;;;;;21.24;39.16;99579.88;690898;28;21581;-65
2022/05/24 00:24:55;;;;;;;527.03;472.27;;;;;;;21.24;39.14;99582.63;689164;28;67929;-65
2022/05/24 00:25:16;;;;;;;525.03;470.33;;;;;;;21.19;39.28;99582.63;687453;28;114931;-66
2022/05/24 00:25:40;;;;;;;524.70;470.00;;;;;;;21.23;39.17;99581.78;690989;28;23486;-66
2022/05/24 00:26:05;;;;;;;531.05;476.15;;;;;;;21.22;39.23;99576.56;688164;28;92113;-66
2022/05/24 00:26:29;;;;;;;530.28;475.48;;;;;;;21.27;39.03;99575.75;687351;28;114557;-65
2022/05/24 00:26:50;;;;;;;528.15;473.40;;;;;;;21.29;39.06;99576.31;688429;28;82739;-65
2022/05/24 00:27:12;;;;;;;526.70;471.80;;;;;;;21.29;39.01;99582.63;690048;28;23460;-67
2022/05/24 00:27:33;;;;;;;531.33;476.40;;;;;;;21.27;39.13;99573.84;689805;28;45098;-66
2022/05/24 00:27:55;;;;;;;527.95;473.25;;;;;;;21.26;39.08;99579.63;690766;28;22430;-65
2022/05/24 00:28:17;;;;;;;532.33;477.35;;;;;;;21.24;39.22;99577.16;688822;28;45227;-65
2022/05/24 00:28:39;;;;;;;531.40;476.50;;;;;;;21.22;39.31;99582.06;689769;28;46429;-66
2022/05/24 00:29:00;;;;;;;528.53;473.63;;;;;;;21.20;39.22;99571.34;689888;28;21506;-65
2022/05/24 00:29:21;;;;;;;524.72;470.02;;;;;;;21.15;39.42;99568.63;690412;28;22322;-65
2022/05/24 00:29:42;;;;;;;521.28;466.70;;;;;;;21.18;39.33;99581.81;690741;28;21613;-65
2022/05/24 00:30:06;;;;;;;526.03;471.33;;;;;;;21.17;39.60;99579.34;689977;28;47097;-65
2022/05/24 00:30:27;;;;;;;527.40;472.48;;;;;;;21.16;39.46;99573.03;689295;28;69448;-65
2022/05/24 00:30:49;;;;;;;529.40;474.50;;;;;;;21.16;39.30;99572.19;689652;28;46419;-66
2022/05/24 00:31:11;;;;;;;532.28;477.38;;;;;;;21.17;39.47;99571.09;690594;28;22400;-65
2022/05/24 00:31:32;;;;;;;534.47;479.63;;;;;;;21.17;39.48;99574.66;689092;28;67435;-66
2022/05/24 00:31:53;;;;;;;546.50;491.33;;;;;;;21.17;39.46;99579.34;690273;28;22203;-65
2022/05/24 00:32:14;;;;;;;535.70;480.70;;;;;;;21.17;39.35;99573.84;690355;28;23486;-66
2022/05/24 00:32:36;;;;;;;530.67;475.88;;;;;;;21.18;39.27;99572.75;690630;28;23483;-66
2022/05/24 00:32:58;;;;;;;530.83;475.92;;;;;;;21.18;39.42;99573.56;690340;28;24660;-65
2022/05/24 00:33:21;;;;;;;531.03;476.05;;;;;;;21.18;39.24;99573.56;688539;28;66441;-65
2022/05/24 00:33:42;;;;;;;532.97;478.08;;;;;;;21.18;39.29;99573.56;689342;28;69413;-66
2022/05/24 00:34:03;;;;;;;536.45;481.45;;;;;;;21.18;39.56;99570.81;690558;28;22347;-65
2022/05/24 00:34:25;;;;;;;533.50;478.60;;;;;;;21.16;39.47;99569.44;690694;28;23344;-66
2022/05/24 00:34:46;;;;;;;538.47;483.48;;;;;;;21.16;39.43;99564.78;690014;28;45271;-65
2022/05/24 00:35:08;;;;;;;532.22;477.33;;;;;;;21.17;39.31;99579.34;691378;28;884;-65
2022/05/24 00:35:30;;;;;;;529.97;475.17;;;;;;;21.13;39.36;99568.09;689975;28;44414;-64
2022/05/24 00:35:52;;;;;;;533.47;478.58;;;;;;;21.13;39.50;99573.59;688971;28;69706;-67
2022/05/24 00:36:13;;;;;;;531.22;476.38;;;;;;;21.11;39.27;99564.78;690804;28;23051;-65
2022/05/24 00:36:34;;;;;;;531.08;476.27;;;;;;;21.13;39.44;99572.75;690653;28;21515;-65
2022/05/24 00:36:55;;;;;;;529.55;474.52;;;;;;;21.14;39.51;99566.97;689227;28;46338;-65
2022/05/24 00:37:19;;;;;;;532.65;477.45;;;;;;;21.14;39.58;99564.22;689233;28;21500;-64
2022/05/24 00:37:41;;;;;;;527.63;472.73;;;;;;;21.14;39.27;99566.97;688079;28;70188;-65
2022/05/24 00:38:02;;;;;;;525.15;470.45;;;;;;;21.17;39.57;99571.09;690309;28;6874;-65
2022/05/24 00:38:26;;;;;;;528.50;473.75;;;;;;;21.16;39.18;99570.28;690634;28;21507;-65
2022/05/24 00:38:49;;;;;;;521.60;467.00;;;;;;;21.16;39.50;99566.69;689023;27;114946;-65
2022/05/24 00:39:10;;;;;;;524.28;469.58;;;;;;;21.18;39.35;99570.81;689355;28;46399;-66
2022/05/24 00:39:31;;;;;;;524.45;469.85;;;;;;;21.18;39.42;99567.25;690759;28;21529;-65
2022/05/24 00:39:55;;;;;;;527.38;472.77;;;;;;;21.20;39.39;99571.34;690803;28;69510;-66
2022/05/24 00:40:28;;;;;;;529.72;475.02;;;;;;;21.20;39.29;99578.78;689717;28;46220;-66
2022/05/24 00:40:58;;;;;;;528.28;473.58;;;;;;;21.20;39.28;99574.09;686527;28;136125;-65
2022/05/24 00:41:24;;;;;;;519.88;465.38;;;;;;;21.20;39.26;99578.78;685898;28;135697;-65
2022/05/24 00:41:56;;;;;;;527.33;472.63;;;;;;;21.21;39.19;99585.94;686832;28;138435;-66
2022/05/24 00:42:20;;;;;;;527.35;472.67;;;;;;;21.20;39.12;99578.78;686470;28;137726;-65
2022/05/24 00:42:42;;;;;;;529.22;474.50;;;;;;;21.20;39.41;99576.84;688407;28;92280;-65
2022/05/24 00:43:08;;;;;;;531.85;476.98;;;;;;;21.19;39.32;99574.38;689006;28;46492;-66
2022/05/24 00:43:31;;;;;;;525.17;470.67;;;;;;;21.20;39.52;99585.09;686738;28;138216;-65
2022/05/24 00:43:56;;;;;;;523.33;468.73;;;;;;;21.20;39.31;99582.34;688982;28;67048;-66
2022/05/24 00:44:21;;;;;;;519.00;464.52;;;;;;;21.20;39.46;99578.78;687965;28;113392;-66
2022/05/24 00:44:46;;;;;;;521.03;466.58;;;;;;;21.18;39.27;99578.25;687004;28;115242;-65
2022/05/24 00:45:12;;;;;;;524.08;469.40;;;;;;;21.15;39.42;99576.88;688360;28;83005;-65
2022/05/24 00:45:41;;;;;;;518.60;464.10;;;;;;;21.14;39.49;99566.97;685719;28;137228;-65
2022/05/24 00:46:06;;;;;;;523.22;468.63;;;;;;;21.12;39.45;99582.09;687145;28;115108;-66
2022/05/24 00:46:29;;;;;;;531.47;476.77;;;;;;;21.13;39.54;99578.22;687303;28;115186;-65
2022/05/24 00:46:56;;;;;;;528.53;473.92;;;;;;;21.13;39.50;99581.81;688861;28;69409;-66
2022/05/24 00:47:24;;;;;;;529.67;474.75;;;;;;;21.10;39.26;99579.63;686290;28;137671;-65
2022/05/24 00:47:51;;;;;;;523.70;469.05;;;;;;;21.13;39.52;99590.06;686802;28;138091;-65
2022/05/24 00:48:21;;;;;;;522.13;467.53;;;;;;;21.10;39.48;99581.53;686276;28;121925;-66
2022/05/24 00:48:49;;;;;;;525.15;470.55;;;;;;;21.12;39.30;99582.09;686902;28;137780;-65
2022/05/24 00:49:14;;;;;;;522.97;468.38;;;;;;;21.09;39.72;99583.44;686118;28;138377;-66
2022/05/24 00:49:39;;;;;;;520.63;466.13;;;;;;;21.03;39.72;99582.66;687594;28;114489;-65
2022/05/24 00:50:05;;;;;;;518.67;464.27;;;;;;;21.04;39.72;99586.22;686776;28;137898;-66
2022/05/24 00:50:29;;;;;;;522.03;467.35;;;;;;;21.03;39.65;99581.81;686833;28;137939;-65
2022/05/24 00:50:52;;;;;;;518.72;464.23;;;;;;;20.98;39.76;99582.63;687949;28;90674;-65
2022/05/24 00:51:15;;;;;;;517.22;462.77;;;;;;;20.99;40.01;99577.97;689742;28;46485;-65
2022/05/24 00:51:39;;;;;;;515.33;460.95;;;;;;;20.96;39.74;99581.28;688097;28;92171;-66
2022/05/24 00:52:04;;;;;;;517.97;463.48;;;;;;;20.97;39.99;99585.66;688368;28;90642;-65
2022/05/24 00:52:29;;;;;;;521.03;466.35;;;;;;;20.97;39.89;99580.16;687522;28;113015;-65
2022/05/24 00:52:54;;;;;;;524.97;470.17;;;;;;;20.95;39.82;99585.91;687244;28;115342;-66
2022/05/24 00:53:21;;;;;;;528.33;473.55;;;;;;;20.93;40.00;99579.09;685864;28;137906;-66
2022/05/24 00:53:46;;;;;;;529.83;475.10;;;;;;;20.91;40.08;99586.75;686904;28;138808;-65
2022/05/24 00:54:07;;;;;;;529.20;474.40;;;;;;;20.92;40.07;99577.41;687085;28;115278;-65
2022/05/24 00:54:28;;;;;;;529.33;474.52;;;;;;;20.93;39.99;99579.91;690758;28;23565;-65
2022/05/24 00:54:51;;;;;;;523.00;468.40;;;;;;;20.94;39.96;99578.81;690669;28;23517;-65
2022/05/24 00:55:15;;;;;;;521.25;466.65;;;;;;;20.91;40.06;99582.09;689714;28;46553;-65
2022/05/24 00:55:42;;;;;;;520.20;465.50;;;;;;;20.91;40.11;99573.03;687046;28;115059;-66
2022/05/24 00:56:07;;;;;;;525.30;470.60;;;;;;;20.92;40.03;99580.97;686734;28;138048;-66
2022/05/24 00:56:47;;;;;;;523.40;468.70;;;;;;;20.94;40.21;99580.72;689224;28;59351;-66
2022/05/24 00:57:10;;;;;;;525.72;470.92;;;;;;;20.92;39.97;99572.75;686269;28;159492;-67
2022/05/24 00:57:34;;;;;;;524.22;469.42;;;;;;;20.89;39.98;99573.28;688204;28;92089;-65
2022/05/24 00:58:02;;;;;;;519.85;465.35;;;;;;;20.91;40.04;99571.13;689363;28;69418;-65
2022/05/24 00:58:31;;;;;;;516.05;461.58;;;;;;;20.91;39.97;99576.59;684249;28;157559;-66
2022/05/24 00:58:55;;;;;;;519.33;464.75;;;;;;;20.93;39.97;99579.91;686485;28;136103;-67
2022/05/24 00:59:22;;;;;;;516.38;461.88;;;;;;;20.92;40.09;99574.69;688612;28;67099;-66
2022/05/24 00:59:49;;;;;;;519.78;465.25;;;;;;;20.90;40.18;99574.13;686764;28;135695;-65
2022/05/24 01:00:14;;;;;;;523.90;469.10;;;;;;;20.91;40.24;99581.25;686866;28;138768;-66
2022/05/24 01:00:35;;;;;;;519.00;464.33;;;;;;;20.92;40.05;99574.69;689350;28;50121;-65
2022/05/24 01:00:59;;;;;;;521.15;466.42;;;;;;;20.90;40.23;99569.47;690631;28;22259;-65
2022/05/24 01:01:30;;;;;;;520.00;465.40;;;;;;;20.92;40.03;99574.69;688402;28;90708;-65
2022/05/24 01:01:51;;;;;;;523.20;468.50;;;;;;;20.92;40.23;99577.41;686763;28;137510;-65
2022/05/24 01:02:12;;;;;;;524.70;469.95;;;;;;;20.92;40.17;99577.41;689776;28;44370;-66
2022/05/24 01:02:37;;;;;;;523.65;468.95;;;;;;;20.91;40.33;99578.50;689604;28;44350;-65
2022/05/24 01:02:58;;;;;;;517.33;462.83;;;;;;;20.92;40.25;99578.22;686771;28;69713;-66
2022/05/24 01:03:19;;;;;;;510.73;456.40;;;;;;;20.92;39.98;99574.69;689772;28;22429;-65
2022/05/24 01:03:40;;;;;;;512.28;457.88;;;;;;;20.92;40.03;99582.91;689984;28;45276;-66
2022/05/24 01:04:03;;;;;;;515.63;461.13;;;;;;;20.91;40.13;99578.50;690370;28;23418;-65
2022/05/24 01:04:24;;;;;;;516.83;462.35;;;;;;;20.90;40.12;99576.88;690184;28;41136;-65
2022/05/24 01:04:45;;;;;;;507.55;453.25;;;;;;;20.88;40.12;99583.47;690695;28;22330;-65
2022/05/24 01:05:08;;;;;;;507.50;453.10;;;;;;;20.90;40.09;99579.63;690633;28;22473;-66
2022/05/24 01:05:32;;;;;;;511.42;457.02;;;;;;;20.88;40.19;99569.72;688045;28;92148;-66
2022/05/24 01:05:53;;;;;;;512.05;457.55;;;;;;;20.88;40.01;99577.16;689065;28;69820;-65
2022/05/24 01:06:14;;;;;;;511.95;457.52;;;;;;;20.88;40.17;99582.66;690506;28;21502;-65
2022/05/24 01:06:36;;;;;;;511.38;457.08;;;;;;;20.93;40.07;99581.81;690591;28;22372;-65
2022/05/24 01:06:57;;;;;;;519.00;464.20;;;;;;;20.92;40.02;99577.41;689119;28;46333;-65
2022/05/24 01:07:19;;;;;;;516.67;461.95;;;;;;;20.92;40.09;99580.16;690589;28;21496;-65
2022/05/24 01:07:40;;;;;;;513.92;459.50;;;;;;;20.95;39.89;99574.13;689608;28;46377;-65
2022/05/24 01:08:01;;;;;;;512.83;458.40;;;;;;;20.94;39.92;99581.56;689916;28;23447;-65
2022/05/24 01:08:22;;;;;;;507.98;453.67;;;;;;;20.94;40.00;99578.81;690839;28;23474;-65
2022/05/24 01:08:44;;;;;;;513.15;458.85;;;;;;;20.94;40.05;99584.28;690947;28;22319;-66
2022/05/24 01:09:08;;;;;;;512.15;457.80;;;;;;;20.94;40.01;99576.06;688477;28;69489;-65
2022/05/24 01:09:38;;;;;;;505.58;451.42;;;;;;;20.94;39.88;99575.22;689246;28;69453;-66
2022/05/24 01:10:04;;;;;;;501.83;447.77;;;;;;;20.94;39.95;99588.94;686511;28;138163;-66
2022/05/24 01:10:29;;;;;;;511.63;457.33;;;;;;;20.93;40.06;99585.38;688241;28;99297;-65
2022/05/24 01:10:51;;;;;;;502.13;448.08;;;;;;;20.93;40.06;99577.16;686991;28;115334;-65
2022/05/24 01:11:14;;;;;;;497.10;443.30;;;;;;;20.93;40.09;99579.09;688964;28;68334;-65
2022/05/24 01:11:38;;;;;;;493.85;440.08;;;;;;;20.91;40.12;99573.88;690301;28;47981;-65
2022/05/24 01:12:02;;;;;;;498.75;444.83;;;;;;;20.94;40.18;99580.72;687909;28;92202;-66
2022/05/24 01:12:27;;;;;;;504.92;450.83;;;;;;;20.93;40.01;99574.41;688136;28;93041;-66
2022/05/24 01:12:52;;;;;;;506.10;451.92;;;;;;;20.97;39.96;99583.75;686656;28;137915;-66
2022/05/24 01:13:16;;;;;;;510.23;455.92;;;;;;;20.96;40.06;99578.53;687534;28;92120;-66
2022/05/24 01:13:38;;;;;;;509.80;455.58;;;;;;;20.94;39.99;99577.97;688287;28;92340;-66
2022/05/24 01:14:00;;;;;;;507.13;452.92;;;;;;;20.93;39.98;99590.88;689663;28;45277;-66
2022/05/24 01:14:23;;;;;;;508.45;454.25;;;;;;;20.94;40.07;99583.44;690223;28;44353;-66
2022/05/24 01:14:45;;;;;;;504.73;450.42;;;;;;;20.95;39.84;99580.44;688399;28;92286;-67
2022/05/24 01:15:09;;;;;;;507.55;453.35;;;;;;;20.95;39.88;99579.63;691072;28;22410;-65
2022/05/24 01:15:31;;;;;;;507.70;453.48;;;;;;;20.95;40.03;99583.19;688469;28;92041;-65
2022/05/24 01:15:52;;;;;;;510.42;456.13;;;;;;;20.93;40.00;99581.81;689932;28;46310;-65
2022/05/24 01:16:14;;;;;;;509.75;455.50;;;;;;;20.93;39.96;99579.09;689932;28;21330;-66
2022/05/24 01:16:38;;;;;;;509.47;455.17;;;;;;;20.93;40.07;99579.09;686009;28;114980;-65
2022/05/24 01:17:02;;;;;;;516.20;461.55;;;;;;;20.90;39.93;99587.84;689692;28;44356;-66
2022/05/24 01:17:23;;;;;;;520.33;465.52;;;;;;;20.90;40.02;99580.44;688294;28;92372;-66
2022/05/24 01:17:45;;;;;;;509.23;454.95;;;;;;;20.92;40.05;99580.97;690621;28;22412;-65
2022/05/24 01:18:06;;;;;;;510.75;456.38;;;;;;;20.95;39.88;99577.69;688685;28;45253;-65
2022/05/24 01:18:28;;;;;;;508.80;454.50;;;;;;;20.99;39.94;99588.97;690121;28;22405;-65
2022/05/24 01:18:50;;;;;;;506.42;452.25;;;;;;;20.99;39.93;99584.28;689911;28;46269;-66
2022/05/24 01:19:18;;;;;;;511.80;457.52;;;;;;;21.00;39.84;99582.34;690549;28;22413;-66
2022/05/24 01:19:43;;;;;;;512.42;458.10;;;;;;;20.99;39.91;99581.53;686780;28;137771;-66
2022/05/24 01:20:06;;;;;;;510.70;456.40;;;;;;;20.98;39.86;99582.63;687031;28;114876;-66
2022/05/24 01:20:27;;;;;;;511.70;457.40;;;;;;;20.94;40.13;99576.06;688621;28;69474;-65
2022/05/24 01:20:54;;;;;;;515.28;460.88;;;;;;;20.95;40.05;99579.63;690788;28;23410;-66
2022/05/24 01:21:17;;;;;;;512.25;457.80;;;;;;;20.95;40.05;99583.19;689632;27;136495;-66
2022/05/24 01:21:39;;;;;;;514.03;459.63;;;;;;;20.92;40.05;99575.50;690504;28;67469;-65
2022/05/24 01:22:08;;;;;;;517.88;463.33;;;;;;;20.90;40.06;99580.44;692321;28;44480;-65
2022/05/24 01:22:53;;;;;;;522.03;467.33;;;;;;;20.92;39.93;99580.97;688439;28;138003;-66
2022/05/24 01:23:27;;;;;;;523.87;469.17;;;;;;;20.93;40.03;99579.09;686344;28;137801;-65
2022/05/24 01:23:53;;;;;;;522.10;467.50;;;;;;;20.95;39.99;99576.88;685970;28;137728;-65
2022/05/24 01:24:20;;;;;;;507.35;453.05;;;;;;;20.90;40.12;99571.41;686381;28;138100;-66
2022/05/24 01:24:47;;;;;;;510.73;456.40;;;;;;;20.93;40.02;99576.34;686701;28;137180;-66
2022/05/24 01:25:14;;;;;;;511.25;456.98;;;;;;;20.90;39.95;99574.13;686187;28;136389;-65
2022/05/24 01:25:45;;;;;;;523.38;468.67;;;;;;;20.91;40.15;99578.50;685349;28;138049;-65
2022/05/24 01:26:12;;;;;;;514.60;460.23;;;;;;;20.91;40.09;99573.88;686628;28;137705;-66
2022/05/24 01:26:42;;;;;;;508.33;453.92;;;;;;;20.90;40.16;99582.38;686430;28;139088;-65
2022/05/24 01:27:04;;;;;;;509.85;455.30;;;;;;;20.86;40.40;99573.84;687365;28;137559;-65
2022/05/24 01:27:25;;;;;;;522.08;467.38;;;;;;;20.85;40.31;99574.97;690211;28;21272;-65
2022/05/24 01:27:47;;;;;;;516.58;462.08;;;;;;;20.85;40.30;99572.22;690904;28;22479;-65
2022/05/24 01:28:11;;;;;;;516.25;461.85;;;;;;;20.87;40.21;99573.56;689194;28;44363;-65
2022/05/24 01:28:35;;;;;;;518.90;464.30;;;;;;;20.86;40.30;99573.84;687423;28;114903;-65
2022/05/24 01:29:00;;;;;;;519.25;464.70;;;;;;;20.87;40.13;99572.75;687349;28;115681;-66
2022/05/24 01:29:23;;;;;;;526.55;471.75;;;;;;;20.84;40.24;99573.31;687594;28;115022;-65
2022/05/24 01:29:44;;;;;;;525.40;470.80;;;;;;;20.86;40.12;99574.69;689228;28;69756;-65
2022/05/24 01:30:07;;;;;;;524.53;469.90;;;;;;;20.86;40.29;99573.84;689393;28;44297;-66
2022/05/24 01:30:28;;;;;;;520.67;466.07;;;;;;;20.86;40.46;99571.94;690599;28;84943;-65
2022/05/24 01:30:50;;;;;;;516.17;461.60;;;;;;;20.87;40.29;99575.50;691830;28;44370;-65
2022/05/24 01:31:12;;;;;;;505.67;451.38;;;;;;;20.84;40.29;99571.38;691554;28;46408;-65
2022/05/24 01:36:15;;;;;;;516.75;462.17;;;;;;;20.81;40.40;99571.91;686765;28;137260;-65
2022/05/24 01:36:39;;;;;;;528.00;473.08;;;;;;;20.74;40.63;99556.84;689010;28;69357;-65
2022/05/24 01:37:01;;;;;;;525.80;470.70;;;;;;;20.83;40.34;99579.88;686383;28;116001;-66
2022/05/24 01:37:23;;;;;;;527.15;472.08;;;;;;;20.82;40.28;99570.84;690787;28;22381;-66
2022/05/24 01:37:45;;;;;;;526.75;471.95;;;;;;;20.83;40.38;99569.75;689801;28;44434;-66
2022/05/24 01:38:08;;;;;;;530.50;475.60;;;;;;;20.81;40.44;99569.16;686976;28;69437;-66
2022/05/24 01:38:32;;;;;;;521.92;467.33;;;;;;;20.80;40.34;99570.28;687358;28;115216;-66
2022/05/24 01:38:56;;;;;;;525.95;471.25;;;;;;;20.78;40.60;99577.94;691435;28;24190;-65
2022/05/24 01:39:18;;;;;;;534.35;479.38;;;;;;;20.79;40.52;99571.38;688843;28;92543;-66
2022/05/24 01:39:42;;;;;;;534.90;480.00;;;;;;;20.79;40.41;99574.13;690406;28;46645;-67
2022/05/24 01:40:06;;;;;;;532.78;477.88;;;;;;;20.81;40.41;99571.09;686893;28;137901;-67
2022/05/24 01:40:28;;;;;;;532.47;477.58;;;;;;;20.80;40.58;99572.19;690755;28;21502;-67
2022/05/24 01:40:52;;;;;;;533.90;479.00;;;;;;;20.79;40.65;99565.88;690486;28;46347;-66
2022/05/24 01:41:18;;;;;;;529.85;474.98;;;;;;;20.79;40.59;99570.56;688624;28;90715;-66
2022/05/24 01:41:44;;;;;;;528.97;474.17;;;;;;;20.78;40.54;99572.47;687316;28;137738;-65
2022/05/24 01:42:13;;;;;;;525.72;470.95;;;;;;;20.79;40.60;99578.78;686731;28;138412;-65
2022/05/24 01:42:34;;;;;;;518.60;464.08;;;;;;;20.75;40.71;99570.25;689372;28;69481;-66
2022/05/24 01:42:55;;;;;;;518.47;463.80;;;;;;;20.77;40.50;99570.00;691342;28;22348;-65
2022/05/24 01:43:17;;;;;;;524.25;469.52;;;;;;;20.75;40.77;99572.19;690135;28;21355;-65
2022/05/24 01:43:42;;;;;;;522.25;467.55;;;;;;;20.75;40.65;99574.94;690354;28;45277;-65
2022/05/24 01:44:03;;;;;;;517.45;462.92;;;;;;;20.75;40.69;99575.75;687817;28;115265;-66
2022/05/24 01:44:28;;;;;;;515.90;461.42;;;;;;;20.73;40.70;99575.22;691132;28;22387;-66
2022/05/24 01:44:53;;;;;;;520.92;466.25;;;;;;;20.73;40.81;99574.41;688118;28;113576;-65
2022/05/24 01:45:17;;;;;;;521.28;466.58;;;;;;;20.71;40.99;99571.94;687839;28;113556;-67
2022/05/24 01:45:42;;;;;;;525.35;470.55;;;;;;;20.70;40.73;99568.38;688113;28;92290;-65
2022/05/24 01:46:07;;;;;;;528.03;473.15;;;;;;;20.73;40.90;99580.69;687876;28;112716;-66
2022/05/24 01:46:32;;;;;;;532.22;477.27;;;;;;;20.70;40.89;99575.75;687779;28;115110;-66
2022/05/24 01:46:54;;;;;;;530.00;475.10;;;;;;;20.71;40.91;99582.91;687436;28;115105;-65
2022/05/24 01:47:17;;;;;;;533.13;477.98;;;;;;;20.69;40.88;99583.16;689262;28;45105;-65
2022/05/24 01:47:40;;;;;;;536.03;480.92;;;;;;;20.69;40.88;99585.09;690161;28;46443;-66
2022/05/24 01:48:07;;;;;;;530.63;475.65;;;;;;;20.66;40.86;99586.47;687633;28;88656;-65
2022/05/24 01:48:30;;;;;;;523.65;468.85;;;;;;;20.67;40.98;99582.63;686658;28;137961;-66
2022/05/24 01:48:56;;;;;;;521.47;466.75;;;;;;;20.66;41.07;99589.19;688419;28;92112;-66
2022/05/24 01:49:20;;;;;;;523.50;468.77;;;;;;;20.65;41.09;99581.25;687968;28;113304;-65
2022/05/24 01:49:44;;;;;;;519.65;464.95;;;;;;;20.62;41.03;99574.34;688077;28;112983;-66
2022/05/24 01:50:08;;;;;;;520.77;466.07;;;;;;;20.64;41.22;99580.44;688701;28;92128;-66
2022/05/24 01:50:31;;;;;;;517.42;462.83;;;;;;;20.65;40.94;99587.53;686967;28;115219;-65
2022/05/24 01:50:54;;;;;;;521.97;467.17;;;;;;;20.63;41.04;99581.47;689678;28;69270;-66
2022/05/24 01:51:16;;;;;;;522.65;467.85;;;;;;;20.66;40.96;99586.47;690127;28;46551;-65
2022/05/24 01:51:42;;;;;;;522.63;467.88;;;;;;;20.66;40.94;99582.91;690988;28;67458;-66
2022/05/24 01:52:07;;;;;;;520.67;466.05;;;;;;;20.66;41.06;99585.66;689778;28;115236;-66